Terminal Aerodrome Forecast
Issued by NWS

Home | Current Version | Previous Version | Text Only | Print | Product List | Glossary On
Versions: 1 2 3 4 5 6 7 8 9 10 11 12 13 14 15 16 17 18
342
FTUS46 KMTR 231120
TAFOAK
TAF
KOAK 231120Z 2312/2418 24009KT 6SM BR FEW008 OVC016
     FM231800 25009KT P6SM BKN018
     FM232000 26010KT P6SM SCT020 SCT100
     FM232200 26014KT P6SM FEW020 SCT100 SCT200
      TEMPO 2401/2404 BKN016
     FM240400 26009KT P6SM OVC014
     FM240900 25006KT P6SM OVC012
     FM241730 25010KT P6SM SCT018 SCT070 BKN180=

USA.gov is the U.S. government's official web portal to all federal, state and local government web resources and services.